Time;durP1;ratioP1;P1;durP2;ratioP2;P2;SDS_P1;SDS_P2;PMS_P1;PMS_P2;Temp;Humidity;BMP_temperature;BMP_pressure;BME280_temperature;BME280_humidity;BME280_pressure;Samples;Min_cycle;Max_cycle;Signal;HPM_P1;HPM_P2
2022/11/20 00:01:14;;;;;;;18.58;13.48;;;-2.00;99.90;;;;;;5064799;28;20032;-64
2022/11/20 00:03:39;;;;;;;21.08;13.80;;;-1.90;99.90;;;;;;5062039;28;20053;-64
2022/11/20 00:06:08;;;;;;;18.40;13.07;;;-1.90;99.90;;;;;;5061146;28;20548;-64
2022/11/20 00:08:34;;;;;;;18.42;12.68;;;-1.80;99.90;;;;;;5066671;28;20068;-64
2022/11/20 00:11:23;;;;;;;18.00;12.93;;;-1.70;99.90;;;;;;5057684;28;20383;-64
2022/11/20 00:13:52;;;;;;;19.52;12.38;;;-1.70;99.90;;;;;;5059384;28;20527;-64
2022/11/20 00:16:21;;;;;;;19.95;12.80;;;-1.70;99.90;;;;;;5060416;28;20059;-64
2022/11/20 00:18:47;;;;;;;20.70;12.00;;;-1.60;99.90;;;;;;5060001;28;20040;-64
2022/11/20 00:21:18;;;;;;;16.35;11.48;;;-1.60;99.90;;;;;;5059016;28;20051;-64
2022/11/20 00:23:44;;;;;;;16.80;11.52;;;-1.50;99.90;;;;;;5077382;28;20036;-64
2022/11/20 00:26:12;;;;;;;17.65;11.55;;;-1.50;99.90;;;;;;5059816;28;20036;-64
2022/11/20 00:28:38;;;;;;;19.58;12.82;;;-1.50;99.90;;;;;;5064369;28;20442;-64
2022/11/20 00:31:05;;;;;;;19.27;12.30;;;-1.50;99.90;;;;;;5061114;28;20087;-64
2022/11/20 00:33:31;;;;;;;19.15;13.32;;;-1.40;99.90;;;;;;5062739;28;20102;-64
2022/11/20 00:36:05;;;;;;;18.90;14.00;;;-1.40;99.90;;;;;;5066528;28;20048;-65
2022/11/20 00:38:33;;;;;;;19.38;13.07;;;-1.30;99.90;;;;;;5064753;28;20041;-65
2022/11/20 00:41:01;;;;;;;18.52;13.57;;;-1.30;99.90;;;;;;5058362;28;20041;-65
2022/11/20 00:43:27;;;;;;;18.85;12.70;;;-1.30;99.90;;;;;;5059160;28;20087;-65
2022/11/20 00:45:57;;;;;;;18.65;13.27;;;-1.30;99.90;;;;;;5066189;28;20064;-65
2022/11/20 00:48:23;;;;;;;18.20;12.35;;;-1.20;99.90;;;;;;5057384;28;20059;-64
2022/11/20 00:50:49;;;;;;;17.90;11.90;;;-1.20;99.90;;;;;;5061936;28;20124;-64
2022/11/20 00:53:14;;;;;;;18.77;13.02;;;-1.20;99.90;;;;;;5057646;28;20537;-64
2022/11/20 00:55:40;;;;;;;21.38;14.20;;;-1.10;99.90;;;;;;5061331;28;20095;-65
2022/11/20 00:58:06;;;;;;;18.83;13.85;;;-1.10;99.90;;;;;;5058792;28;20120;-64
2022/11/20 01:00:32;;;;;;;18.10;13.05;;;-1.10;99.90;;;;;;5059083;28;20534;-64
2022/11/20 01:02:58;;;;;;;21.95;15.20;;;-1.10;99.90;;;;;;5057929;28;20037;-65
2022/11/20 01:05:23;;;;;;;19.83;13.75;;;-1.10;99.90;;;;;;5062565;28;20045;-64
2022/11/20 01:07:49;;;;;;;18.40;13.15;;;-1.00;99.90;;;;;;5062972;28;20160;-64
2022/11/20 01:10:15;;;;;;;22.55;14.93;;;-1.00;99.90;;;;;;5059954;28;20082;-65
2022/11/20 01:12:40;;;;;;;23.17;14.38;;;-1.00;99.90;;;;;;5056803;28;20044;-64
2022/11/20 01:15:07;;;;;;;23.38;14.52;;;-0.90;99.90;;;;;;5056498;28;20044;-65
2022/11/20 01:17:33;;;;;;;21.67;15.43;;;-0.90;99.90;;;;;;5053132;28;20047;-65
2022/11/20 01:19:59;;;;;;;22.38;15.40;;;-0.90;99.90;;;;;;5059805;28;20053;-65
2022/11/20 01:22:25;;;;;;;22.48;14.85;;;-0.90;99.90;;;;;;5058136;28;20053;-64
2022/11/20 01:24:50;;;;;;;18.80;13.98;;;-0.90;99.90;;;;;;5058266;28;20471;-64
2022/11/20 01:27:16;;;;;;;19.63;14.38;;;-0.90;99.90;;;;;;5061158;28;20051;-65
2022/11/20 01:29:41;;;;;;;19.08;13.48;;;-0.90;99.90;;;;;;5058774;28;20040;-65
2022/11/20 01:32:07;;;;;;;20.67;15.00;;;-0.90;99.90;;;;;;5060239;28;20078;-65
2022/11/20 01:34:33;;;;;;;19.27;14.75;;;-0.90;99.90;;;;;;5062714;28;20060;-64
2022/11/20 01:36:58;;;;;;;18.35;15.23;;;-0.90;99.90;;;;;;5059282;28;20192;-64
2022/11/20 01:39:26;;;;;;;21.60;14.73;;;-0.90;99.90;;;;;;5056657;28;20045;-64
2022/11/20 01:44:58;;;;;;;18.15;14.32;;;-0.80;99.90;;;;;;5059721;28;20139;-65
2022/11/20 01:47:31;;;;;;;20.67;14.85;;;-0.80;99.90;;;;;;5059191;28;20048;-64
2022/11/20 01:50:15;;;;;;;20.02;14.45;;;-0.80;99.90;;;;;;5058587;28;20037;-64
2022/11/20 01:52:56;;;;;;;17.55;13.20;;;-0.80;99.90;;;;;;5059426;28;20108;-65
2022/11/20 01:55:28;;;;;;;18.83;14.02;;;-0.70;99.90;;;;;;5058091;28;20079;-65
2022/11/20 01:57:54;;;;;;;18.67;14.13;;;-0.70;99.90;;;;;;5059305;28;20731;-65
2022/11/20 02:00:21;;;;;;;23.33;14.93;;;-0.80;99.90;;;;;;5055792;28;20062;-66
2022/11/20 02:03:00;;;;;;;20.42;13.95;;;-0.70;99.90;;;;;;5063595;28;20055;-64
2022/11/20 02:05:50;;;;;;;21.63;14.25;;;-0.70;99.90;;;;;;5063977;28;20076;-64
2022/11/20 02:08:19;;;;;;;17.80;13.63;;;-0.60;99.90;;;;;;5062126;28;20411;-66
2022/11/20 02:10:44;;;;;;;18.20;14.48;;;-0.70;99.90;;;;;;5057451;28;20052;-64
2022/11/20 02:15:55;;;;;;;17.83;13.95;;;-0.60;99.90;;;;;;5054564;28;20053;-64
2022/11/20 02:18:21;;;;;;;17.85;13.35;;;-0.60;99.90;;;;;;5061250;28;20044;-64
2022/11/20 02:20:53;;;;;;;21.30;15.05;;;-0.60;99.90;;;;;;5059031;28;20058;-65
2022/11/20 02:23:26;;;;;;;19.00;14.55;;;-0.60;99.90;;;;;;5058025;28;20114;-64
2022/11/20 02:25:54;;;;;;;17.55;13.13;;;-0.60;99.90;;;;;;5056456;28;20173;-64
2022/11/20 02:28:20;;;;;;;17.50;13.77;;;-0.60;99.90;;;;;;5059779;28;20054;-64
2022/11/20 02:30:46;;;;;;;22.00;14.43;;;-0.60;99.90;;;;;;5055906;28;20040;-65
2022/11/20 02:33:12;;;;;;;18.88;13.75;;;-0.60;99.90;;;;;;5057974;28;20188;-65
2022/11/20 02:35:46;;;;;;;19.52;14.27;;;-0.60;99.90;;;;;;5056459;28;20037;-66
2022/11/20 02:38:14;;;;;;;17.52;13.52;;;-0.50;99.90;;;;;;5065148;28;20386;-65
2022/11/20 02:40:40;;;;;;;19.65;13.57;;;-0.50;99.90;;;;;;5062244;28;20120;-65
2022/11/20 02:43:06;;;;;;;17.20;12.93;;;-0.50;99.90;;;;;;5065136;28;20040;-65
2022/11/20 02:45:32;;;;;;;15.88;12.65;;;-0.50;99.90;;;;;;5062900;28;20110;-65
2022/11/20 02:47:58;;;;;;;18.42;13.57;;;-0.50;99.90;;;;;;5060002;28;20079;-65
2022/11/20 02:50:24;;;;;;;17.13;13.15;;;-0.50;99.90;;;;;;5065516;28;20068;-65
2022/11/20 02:52:49;;;;;;;17.33;12.98;;;-0.50;99.90;;;;;;5063935;28;20048;-65
2022/11/20 02:55:15;;;;;;;16.15;13.35;;;-0.50;99.90;;;;;;5067691;28;20079;-65
2022/11/20 02:57:41;;;;;;;16.70;12.82;;;-0.50;99.90;;;;;;5062236;28;20032;-65
2022/11/20 03:00:07;;;;;;;17.58;13.55;;;-0.50;99.90;;;;;;5065539;28;20049;-65
2022/11/20 03:02:33;;;;;;;15.80;13.13;;;-0.40;99.90;;;;;;5064634;28;20070;-65
2022/11/20 03:04:59;;;;;;;17.02;12.60;;;-0.40;99.90;;;;;;5061116;28;20068;-65
2022/11/20 03:07:25;;;;;;;17.80;13.07;;;-0.40;99.90;;;;;;5062220;28;20371;-65
2022/11/20 03:09:50;;;;;;;16.55;12.90;;;-0.40;99.90;;;;;;5060400;28;20381;-65
2022/11/20 03:12:16;;;;;;;17.55;13.10;;;-0.40;99.90;;;;;;5057978;28;20543;-64
2022/11/20 03:14:42;;;;;;;16.67;12.40;;;-0.40;99.90;;;;;;5061626;28;20045;-65
2022/11/20 03:17:08;;;;;;;17.00;12.77;;;-0.40;99.90;;;;;;5061466;28;20036;-64
2022/11/20 03:19:34;;;;;;;16.52;12.82;;;-0.40;99.90;;;;;;5064494;28;20499;-65
2022/11/20 03:22:00;;;;;;;16.65;12.70;;;-0.40;99.90;;;;;;5061990;28;20048;-65
2022/11/20 03:24:26;;;;;;;17.08;13.13;;;-0.40;99.90;;;;;;5057749;28;20032;-65
2022/11/20 03:26:52;;;;;;;17.48;12.75;;;-0.30;99.90;;;;;;5061896;28;20436;-65
2022/11/20 03:29:17;;;;;;;16.80;12.80;;;-0.30;99.90;;;;;;5063904;28;20033;-65
2022/11/20 03:31:44;;;;;;;17.42;13.15;;;-0.30;99.90;;;;;;5059934;28;20036;-65
2022/11/20 03:34:11;;;;;;;19.35;13.07;;;-0.30;99.90;;;;;;5069601;28;20047;-65
2022/11/20 03:36:41;;;;;;;16.25;13.20;;;-0.30;99.90;;;;;;5061532;28;20108;-65
2022/11/20 03:39:08;;;;;;;16.73;12.77;;;-0.30;99.90;;;;;;5061808;28;20033;-65
2022/11/20 03:41:39;;;;;;;17.65;13.43;;;-0.30;99.90;;;;;;5061789;28;20037;-64
2022/11/20 03:44:08;;;;;;;15.95;12.38;;;-0.20;99.90;;;;;;5058021;28;20048;-65
2022/11/20 03:46:34;;;;;;;18.40;13.32;;;-0.20;99.90;;;;;;5063109;28;20094;-65
2022/11/20 03:48:59;;;;;;;14.35;11.73;;;-0.20;99.90;;;;;;5058387;28;20055;-66
2022/11/20 03:51:34;;;;;;;14.63;11.98;;;-0.20;99.90;;;;;;5062214;28;20041;-65
2022/11/20 03:54:01;;;;;;;;;;;-0.20;99.90;;;;;;5068288;28;20032;-65
2022/11/20 03:56:30;;;;;;;16.27;12.45;;;-0.20;99.90;;;;;;5063163;28;19951;-65
2022/11/20 03:58:56;;;;;;;16.80;12.45;;;-0.20;99.90;;;;;;5063031;28;20041;-65
2022/11/20 04:01:29;;;;;;;14.52;12.38;;;-0.20;99.90;;;;;;5060001;28;20516;-65
2022/11/20 04:03:56;;;;;;;16.83;12.38;;;-0.20;99.90;;;;;;5061146;28;20076;-65
2022/11/20 04:06:24;;;;;;;15.85;12.25;;;-0.20;99.90;;;;;;5067106;28;20404;-65
2022/11/20 04:08:50;;;;;;;16.90;12.48;;;-0.20;99.90;;;;;;5062870;28;20102;-65
2022/11/20 04:11:22;;;;;;;16.27;13.00;;;-0.20;99.90;;;;;;5061254;28;20396;-65
2022/11/20 04:13:50;;;;;;;14.98;12.18;;;-0.20;99.90;;;;;;5063195;28;20206;-65
2022/11/20 04:16:17;;;;;;;17.85;13.20;;;-0.20;99.90;;;;;;5061451;28;20083;-66
2022/11/20 04:18:43;;;;;;;16.60;12.38;;;-0.20;99.90;;;;;;5058968;28;20036;-65
2022/11/20 04:21:10;;;;;;;16.45;12.38;;;-0.20;99.90;;;;;;5057637;28;20493;-65
2022/11/20 04:23:36;;;;;;;15.60;11.98;;;-0.20;99.90;;;;;;5060583;28;20037;-64
2022/11/20 04:26:11;;;;;;;17.45;12.20;;;-0.20;99.90;;;;;;5057963;28;20043;-64
2022/11/20 04:28:38;;;;;;;14.60;12.00;;;-0.20;99.90;;;;;;5061813;28;20029;-65
2022/11/20 04:31:11;;;;;;;14.50;11.27;;;-0.20;99.90;;;;;;5060485;28;20033;-65
2022/11/20 04:33:37;;;;;;;14.95;12.18;;;-0.20;99.90;;;;;;5065216;28;20060;-65
2022/11/20 04:36:10;;;;;;;15.63;12.15;;;-0.20;99.90;;;;;;5062952;28;20040;-65
2022/11/20 04:38:35;;;;;;;16.80;12.40;;;-0.20;99.90;;;;;;5060110;28;20041;-65
2022/11/20 04:41:03;;;;;;;16.67;12.05;;;-0.20;99.90;;;;;;5060143;28;20510;-65
2022/11/20 04:43:29;;;;;;;16.38;12.18;;;-0.20;99.90;;;;;;5061636;28;20520;-65
2022/11/20 04:45:56;;;;;;;13.48;11.02;;;-0.10;99.90;;;;;;5061493;28;20076;-65
2022/11/20 04:48:22;;;;;;;16.33;12.35;;;-0.10;99.90;;;;;;5054344;28;20098;-65
2022/11/20 04:50:47;;;;;;;16.33;13.18;;;-0.10;99.90;;;;;;5059976;28;20151;-65
2022/11/20 04:53:13;;;;;;;14.88;11.93;;;-0.10;99.90;;;;;;5057773;28;20136;-65
2022/11/20 04:55:39;;;;;;;15.45;12.13;;;-0.10;99.90;;;;;;5058423;28;20041;-65
2022/11/20 04:58:05;;;;;;;17.02;12.65;;;-0.20;99.90;;;;;;5060961;28;20464;-65
2022/11/20 05:00:30;;;;;;;13.40;11.38;;;-0.20;99.90;;;;;;5062198;28;20040;-65
2022/11/20 05:02:56;;;;;;;15.18;11.80;;;-0.10;99.90;;;;;;5075576;28;20142;-64
2022/11/20 05:05:22;;;;;;;15.57;12.23;;;-0.10;99.90;;;;;;5060332;28;20041;-64
2022/11/20 05:07:47;;;;;;;14.80;11.98;;;-0.10;99.90;;;;;;5060547;28;20040;-65
2022/11/20 05:10:13;;;;;;;14.25;11.10;;;-0.10;99.90;;;;;;5060871;28;20060;-65
2022/11/20 05:12:39;;;;;;;13.73;11.38;;;-0.20;99.90;;;;;;5059814;28;20076;-65
2022/11/20 05:15:05;;;;;;;14.98;12.38;;;-0.10;99.90;;;;;;5062132;28;20040;-65
2022/11/20 05:17:31;;;;;;;16.75;12.55;;;-0.10;99.90;;;;;;5059135;28;20041;-64
2022/11/20 05:19:57;;;;;;;15.82;11.80;;;-0.10;99.90;;;;;;5058913;28;20108;-65
2022/11/20 05:22:23;;;;;;;15.73;12.18;;;-0.10;99.90;;;;;;5061107;28;20044;-65
2022/11/20 05:24:48;;;;;;;14.90;11.60;;;-0.10;99.90;;;;;;5062759;28;20032;-65
2022/11/20 05:27:14;;;;;;;14.18;10.77;;;-0.10;99.90;;;;;;5060330;28;20125;-65
2022/11/20 05:29:40;;;;;;;14.32;11.55;;;-0.10;99.90;;;;;;5059957;28;20183;-65
2022/11/20 05:32:07;;;;;;;15.38;12.30;;;-0.10;99.90;;;;;;5060211;28;20056;-66
2022/11/20 05:34:33;;;;;;;14.85;11.63;;;-0.10;99.90;;;;;;5061652;28;20044;-65
2022/11/20 05:36:58;;;;;;;16.17;11.52;;;-0.10;99.90;;;;;;5056561;28;20044;-65
2022/11/20 05:39:24;;;;;;;15.13;11.45;;;-0.20;99.90;;;;;;5059995;28;20048;-65
2022/11/20 05:42:29;;;;;;;14.85;11.65;;;-0.20;99.90;;;;;;5059462;28;20029;-65
2022/11/20 05:44:35;;;;;;;14.77;11.55;;;-0.20;99.90;;;;;;5053760;28;20549;-65
2022/11/20 05:47:01;;;;;;;13.82;11.13;;;-0.30;99.90;;;;;;5060615;28;20078;-65
2022/11/20 05:49:26;;;;;;;14.35;11.40;;;-0.30;99.90;;;;;;5056321;28;20448;-65
2022/11/20 05:51:52;;;;;;;13.65;11.27;;;-0.30;99.90;;;;;;5062887;28;20314;-65
2022/11/20 05:54:18;;;;;;;16.35;12.10;;;-0.30;99.90;;;;;;5059988;28;20047;-65
2022/11/20 05:56:43;;;;;;;16.30;11.90;;;-0.30;99.90;;;;;;5060471;28;20032;-64
2022/11/20 05:59:09;;;;;;;14.60;10.32;;;-0.30;99.90;;;;;;5063063;28;20056;-65
2022/11/20 06:01:35;;;;;;;12.95;10.73;;;-0.30;99.90;;;;;;5058775;28;20178;-65
2022/11/20 06:04:01;;;;;;;16.08;10.15;;;-0.20;99.90;;;;;;5056806;28;20473;-65
2022/11/20 06:06:27;;;;;;;13.40;10.73;;;-0.20;99.90;;;;;;5054285;28;20064;-65
2022/11/20 06:08:54;;;;;;;13.32;10.45;;;-0.20;99.90;;;;;;5061260;28;20119;-65
2022/11/20 06:11:21;;;;;;;14.77;10.95;;;-0.20;99.90;;;;;;5060413;28;20121;-65
2022/11/20 06:13:47;;;;;;;12.45;9.93;;;-0.10;99.90;;;;;;5057479;28;20063;-65
2022/11/20 06:16:16;;;;;;;12.95;10.93;;;-0.10;99.90;;;;;;5056145;28;20512;-65
2022/11/20 06:18:41;;;;;;;14.05;10.15;;;-0.10;99.90;;;;;;5062774;28;20040;-65
2022/11/20 06:21:10;;;;;;;16.63;11.98;;;-0.10;99.90;;;;;;5059668;28;20454;-65
2022/11/20 06:23:36;;;;;;;15.05;11.57;;;-0.10;99.90;;;;;;5058373;28;20044;-64
2022/11/20 06:26:23;;;;;;;13.32;10.05;;;-0.10;99.90;;;;;;5058103;28;20488;-64
2022/11/20 06:28:49;;;;;;;15.02;11.68;;;0.00;99.90;;;;;;5065225;28;20040;-65
2022/11/20 06:31:17;;;;;;;14.13;11.93;;;0.00;99.90;;;;;;5056737;28;20080;-64
2022/11/20 06:33:44;;;;;;;15.07;11.50;;;-0.10;99.90;;;;;;5066058;28;20037;-65
2022/11/20 06:36:12;;;;;;;17.58;10.75;;;0.00;99.90;;;;;;5060921;28;20582;-65
2022/11/20 06:38:38;;;;;;;13.93;10.10;;;0.00;99.90;;;;;;5062973;28;20515;-65
2022/11/20 06:41:05;;;;;;;13.15;10.77;;;-0.10;99.90;;;;;;5062829;28;20047;-65
2022/11/20 06:43:31;;;;;;;12.68;11.13;;;0.00;99.90;;;;;;5061563;28;20122;-65
2022/11/20 06:45:58;;;;;;;14.65;10.23;;;-0.10;99.90;;;;;;5055364;28;20036;-66
2022/11/20 06:48:26;;;;;;;13.23;10.80;;;0.00;99.90;;;;;;5060232;28;20047;-65
2022/11/20 06:50:52;;;;;;;14.52;10.93;;;0.00;99.90;;;;;;5056724;28;20041;-65
2022/11/20 06:53:17;;;;;;;13.65;10.95;;;0.00;99.90;;;;;;5062103;28;20437;-64
2022/11/20 06:55:47;;;;;;;14.52;11.60;;;0.00;99.90;;;;;;5058920;28;20036;-65
2022/11/20 06:58:14;;;;;;;13.85;10.82;;;0.00;99.90;;;;;;5061962;28;20506;-65
2022/11/20 07:00:40;;;;;;;15.85;11.00;;;0.00;99.90;;;;;;5058593;28;20090;-64
2022/11/20 07:03:07;;;;;;;14.27;11.23;;;0.00;99.90;;;;;;5062266;28;20045;-64
2022/11/20 07:05:34;;;;;;;15.38;11.57;;;0.00;99.90;;;;;;5062011;28;20117;-64
2022/11/20 07:07:59;;;;;;;15.00;11.90;;;0.00;99.90;;;;;;5061908;28;20028;-64
2022/11/20 07:10:26;;;;;;;14.77;11.57;;;0.10;99.90;;;;;;5061839;28;20037;-64
2022/11/20 07:12:52;;;;;;;16.23;12.55;;;0.10;99.90;;;;;;5058428;28;20041;-63
2022/11/20 07:15:19;;;;;;;125.15;80.50;;;0.10;99.90;;;;;;5060869;28;20049;-62
2022/11/20 07:17:45;;;;;;;16.35;12.50;;;0.00;99.90;;;;;;5060197;28;20102;-63
2022/11/20 07:20:11;;;;;;;13.93;11.18;;;0.10;99.90;;;;;;5061722;28;20056;-64
2022/11/20 07:22:37;;;;;;;18.23;10.40;;;0.00;99.90;;;;;;5047469;28;20082;-64
2022/11/20 07:25:03;;;;;;;15.10;11.02;;;0.10;99.90;;;;;;5063641;28;20040;-63
2022/11/20 07:27:29;;;;;;;14.07;11.45;;;0.10;99.90;;;;;;5062357;28;20045;-64
2022/11/20 07:29:55;;;;;;;14.25;11.70;;;0.10;99.90;;;;;;5063628;28;20539;-63
2022/11/20 07:32:21;;;;;;;14.48;10.55;;;0.10;99.90;;;;;;5061733;28;20044;-64
2022/11/20 07:34:47;;;;;;;14.05;11.00;;;0.10;99.90;;;;;;5065162;28;20127;-63
2022/11/20 07:37:13;;;;;;;14.48;11.13;;;0.10;99.90;;;;;;5062225;28;20534;-63
2022/11/20 07:39:38;;;;;;;15.18;10.65;;;0.10;99.90;;;;;;5063799;28;20039;-63
2022/11/20 07:42:05;;;;;;;13.63;10.60;;;0.10;99.90;;;;;;5061638;28;20036;-63
2022/11/20 07:44:31;;;;;;;13.10;10.48;;;0.10;99.90;;;;;;5062749;28;20044;-63
2022/11/20 07:46:56;;;;;;;13.52;10.20;;;0.20;99.90;;;;;;5064861;28;20041;-63
2022/11/20 07:49:22;;;;;;;12.95;10.07;;;0.20;99.90;;;;;;5059725;28;20107;-63
2022/11/20 07:51:51;;;;;;;13.20;9.85;;;0.20;99.90;;;;;;5057828;28;20043;-63
2022/11/20 07:54:16;;;;;;;13.32;9.95;;;0.20;99.90;;;;;;5065837;28;20044;-63
2022/11/20 07:56:42;;;;;;;11.77;9.70;;;0.20;99.90;;;;;;5066269;28;20136;-63
2022/11/20 07:59:08;;;;;;;16.27;10.65;;;0.20;99.90;;;;;;5066127;28;20040;-64
2022/11/20 08:01:33;;;;;;;14.45;10.13;;;0.30;99.90;;;;;;5064753;28;20028;-64
2022/11/20 08:03:59;;;;;;;13.80;10.82;;;0.30;99.90;;;;;;5062553;28;20040;-64
2022/11/20 08:06:25;;;;;;;15.32;11.57;;;0.30;99.90;;;;;;5059601;28;20377;-63
2022/11/20 08:08:51;;;;;;;15.20;11.35;;;0.30;99.90;;;;;;5058883;28;20110;-64
2022/11/20 08:14:13;;;;;;;16.02;12.50;;;0.40;99.90;;;;;;5064493;28;20037;-64
2022/11/20 08:16:46;;;;;;;14.52;11.73;;;0.40;99.90;;;;;;5059348;28;20480;-64
2022/11/20 08:19:14;;;;;;;14.73;11.40;;;0.40;99.90;;;;;;5060221;28;20103;-64
2022/11/20 08:21:40;;;;;;;14.13;11.18;;;0.40;99.90;;;;;;5066800;28;20043;-64
2022/11/20 08:24:06;;;;;;;13.55;10.85;;;0.50;99.90;;;;;;5060730;28;20115;-64
2022/11/20 08:26:33;;;;;;;16.35;11.93;;;0.50;99.90;;;;;;5060908;28;20040;-63
2022/11/20 08:28:59;;;;;;;12.90;10.55;;;0.60;99.90;;;;;;5063007;28;20122;-64
2022/11/20 08:31:26;;;;;;;14.35;10.70;;;0.60;99.90;;;;;;5061242;28;20093;-64
2022/11/20 08:33:53;;;;;;;62.67;44.03;;;0.60;99.90;;;;;;5061188;28;20059;-63
2022/11/20 08:36:20;;;;;;;13.57;10.75;;;0.60;99.90;;;;;;5057407;28;20036;-63
2022/11/20 08:39:07;;;;;;;11.65;9.82;;;0.60;99.90;;;;;;5062459;28;20041;-64
2022/11/20 08:41:36;;;;;;;11.77;9.80;;;0.60;99.90;;;;;;5064620;28;20370;-64
2022/11/20 08:44:06;;;;;;;11.80;9.57;;;0.60;99.90;;;;;;5065858;28;20047;-64
2022/11/20 08:46:38;;;;;;;12.90;9.20;;;0.60;99.90;;;;;;5056879;28;20028;-64
2022/11/20 08:49:09;;;;;;;10.95;9.38;;;0.60;99.90;;;;;;5064470;28;20071;-64
2022/11/20 08:51:35;;;;;;;12.88;9.50;;;0.70;99.90;;;;;;5061862;28;20128;-64
2022/11/20 08:54:02;;;;;;;11.65;9.55;;;0.80;99.90;;;;;;5059622;28;20488;-64
2022/11/20 08:56:28;;;;;;;12.10;9.70;;;0.90;99.90;;;;;;5057403;28;20058;-64
2022/11/20 08:58:54;;;;;;;12.43;9.10;;;0.90;99.90;;;;;;5066634;28;20032;-64
2022/11/20 09:01:21;;;;;;;11.35;9.02;;;1.00;99.90;;;;;;5057778;28;20043;-64
2022/11/20 09:03:47;;;;;;;11.35;9.52;;;1.10;99.90;;;;;;5062730;28;20029;-64
2022/11/20 09:06:16;;;;;;;11.30;9.27;;;1.30;99.90;;;;;;5057530;28;20484;-64
2022/11/20 09:08:41;;;;;;;10.48;8.52;;;1.50;99.90;;;;;;5062972;28;20110;-63
2022/11/20 09:11:07;;;;;;;13.32;8.95;;;1.50;99.90;;;;;;5060835;28;20079;-64
2022/11/20 09:13:37;;;;;;;10.82;8.75;;;1.60;99.90;;;;;;5058847;28;20041;-65
2022/11/20 09:16:06;;;;;;;12.05;8.48;;;1.60;99.90;;;;;;5063836;28;20338;-64
2022/11/20 09:18:33;;;;;;;10.95;9.20;;;1.60;99.90;;;;;;5062245;28;20341;-64
2022/11/20 09:21:00;;;;;;;12.77;8.90;;;1.60;99.90;;;;;;5052046;28;20128;-64
2022/11/20 09:23:30;;;;;;;12.15;8.88;;;1.60;99.90;;;;;;5054746;28;20101;-64
2022/11/20 09:25:59;;;;;;;10.88;8.82;;;1.50;99.90;;;;;;5058679;28;20097;-64
2022/11/20 09:28:26;;;;;;;12.52;9.18;;;1.60;99.90;;;;;;5064481;28;20053;-64
2022/11/20 09:30:51;;;;;;;13.07;8.30;;;1.60;99.90;;;;;;5059493;28;20068;-65
2022/11/20 09:33:17;;;;;;;12.30;8.55;;;1.80;99.90;;;;;;5062092;28;20338;-65
2022/11/20 09:35:44;;;;;;;10.23;8.48;;;1.80;99.90;;;;;;5058743;28;20426;-64
2022/11/20 09:38:10;;;;;;;10.40;8.48;;;1.90;99.90;;;;;;5059638;28;20064;-64
2022/11/20 09:40:43;;;;;;;10.23;7.88;;;2.00;99.90;;;;;;5062521;28;20346;-64
2022/11/20 09:43:24;;;;;;;10.68;8.65;;;2.20;99.90;;;;;;5056961;28;20052;-64
2022/11/20 09:45:52;;;;;;;10.52;8.23;;;2.40;99.90;;;;;;5059308;28;20120;-64
2022/11/20 09:48:29;;;;;;;10.98;8.65;;;2.70;99.90;;;;;;5059461;28;20044;-66
2022/11/20 09:51:13;;;;;;;12.95;8.75;;;3.00;99.90;;;;;;5060519;28;20052;-65
2022/11/20 09:53:48;;;;;;;10.60;8.70;;;3.30;99.90;;;;;;5060600;28;20043;-65
2022/11/20 09:56:14;;;;;;;11.77;8.52;;;3.50;99.90;;;;;;5059828;28;20294;-65
2022/11/20 09:58:47;;;;;;;9.70;8.40;;;3.60;99.90;;;;;;5058725;28;20037;-64
2022/11/20 10:01:16;;;;;;;9.02;7.50;;;3.70;99.90;;;;;;5058830;28;20106;-65
2022/11/20 10:04:04;;;;;;;7.82;7.03;;;3.70;99.90;;;;;;5058291;28;20501;-66
2022/11/20 10:06:43;;;;;;;8.10;7.15;;;3.60;99.90;;;;;;5056295;28;20036;-65
2022/11/20 10:09:12;;;;;;;8.68;7.55;;;3.60;99.90;;;;;;5063463;28;20040;-65
2022/11/20 10:11:44;;;;;;;11.32;7.72;;;3.60;99.90;;;;;;5058730;28;20447;-65
2022/11/20 10:14:25;;;;;;;7.90;6.50;;;3.60;99.90;;;;;;5059670;28;20066;-64
2022/11/20 10:17:21;;;;;;;10.57;7.28;;;3.60;99.90;;;;;;5062107;28;20106;-65
2022/11/20 10:20:06;;;;;;;7.65;6.85;;;3.60;99.90;;;;;;5060210;28;20535;-64
2022/11/20 10:22:42;;;;;;;7.53;6.72;;;3.50;99.90;;;;;;5056417;28;20065;-65
2022/11/20 10:25:20;;;;;;;10.60;7.45;;;3.40;99.90;;;;;;5060773;28;20124;-65
2022/11/20 10:27:55;;;;;;;8.52;7.63;;;3.40;99.90;;;;;;5059319;28;20537;-65
2022/11/20 10:30:24;;;;;;;9.20;8.25;;;3.40;99.90;;;;;;5060267;28;20051;-65
2022/11/20 10:32:54;;;;;;;10.52;8.43;;;3.60;99.90;;;;;;5054641;28;20045;-65
2022/11/20 10:35:54;;;;;;;9.05;7.68;;;3.70;99.90;;;;;;5058841;28;20093;-65
2022/11/20 10:38:44;;;;;;;9.50;7.63;;;3.80;99.90;;;;;;5050896;28;20056;-65
2022/11/20 10:41:25;;;;;;;9.07;7.78;;;3.80;99.90;;;;;;5063817;28;20032;-65
2022/11/20 10:44:05;;;;;;;8.48;7.53;;;4.00;99.90;;;;;;5060286;28;20052;-64
2022/11/20 10:46:43;;;;;;;9.23;7.53;;;4.00;99.90;;;;;;5058395;28;20073;-65
2022/11/20 10:49:17;;;;;;;11.20;8.25;;;4.10;99.90;;;;;;5061342;28;20045;-64
2022/11/20 10:52:12;;;;;;;9.82;7.90;;;4.20;99.90;;;;;;5061786;28;20044;-65
2022/11/20 10:54:45;;;;;;;;;;;4.30;99.90;;;;;;5061220;28;20044;-65
2022/11/20 10:57:25;;;;;;;8.38;7.03;;;4.40;99.90;;;;;;5056304;28;19927;-64
2022/11/20 11:00:10;;;;;;;9.05;7.90;;;4.50;99.90;;;;;;5054642;28;20048;-65
2022/11/20 11:02:49;;;;;;;11.15;7.78;;;4.60;99.90;;;;;;5063853;28;20039;-64
2022/11/20 11:05:37;;;;;;;8.93;7.10;;;4.50;99.90;;;;;;5065343;28;20075;-65
2022/11/20 11:08:10;;;;;;;7.75;6.72;;;4.50;99.90;;;;;;5063259;28;20482;-64
2022/11/20 11:10:54;;;;;;;10.40;6.65;;;4.60;99.90;;;;;;5062970;28;20748;-64
2022/11/20 11:13:28;;;;;;;7.85;6.50;;;4.60;99.90;;;;;;5057766;28;20059;-64
2022/11/20 11:15:54;;;;;;;8.10;6.40;;;4.60;99.90;;;;;;5053403;28;20037;-65
2022/11/20 11:18:32;;;;;;;6.53;5.65;;;4.70;99.90;;;;;;5057395;28;20111;-64
2022/11/20 11:21:00;;;;;;;7.53;6.65;;;4.70;99.90;;;;;;5056562;28;20049;-64
2022/11/20 11:23:34;;;;;;;8.07;6.53;;;4.80;99.90;;;;;;5058539;28;20044;-64
2022/11/20 11:26:04;;;;;;;7.88;6.43;;;4.70;99.90;;;;;;5054321;28;20048;-65
2022/11/20 11:28:30;;;;;;;10.60;6.78;;;4.70;99.90;;;;;;5060893;28;20056;-65
2022/11/20 11:30:56;;;;;;;8.05;7.03;;;4.70;99.90;;;;;;5055792;28;20128;-65
2022/11/20 11:33:27;;;;;;;7.93;6.70;;;4.70;99.90;;;;;;5063542;28;20135;-65
2022/11/20 11:35:57;;;;;;;7.32;6.20;;;4.70;99.90;;;;;;5065568;28;20512;-65
2022/11/20 11:38:39;;;;;;;8.00;6.53;;;4.70;99.90;;;;;;5064577;28;20501;-65
2022/11/20 11:41:09;;;;;;;7.25;6.50;;;4.70;99.90;;;;;;5064643;28;20056;-66
2022/11/20 11:46:24;;;;;;;6.70;6.00;;;4.80;99.90;;;;;;5062298;28;20037;-65
2022/11/20 11:49:08;;;;;;;7.57;6.70;;;4.90;99.90;;;;;;5062522;28;20041;-65
2022/11/20 11:51:51;;;;;;;7.07;6.25;;;5.00;99.90;;;;;;5064936;28;20048;-65
2022/11/20 11:54:25;;;;;;;7.20;6.50;;;5.00;99.90;;;;;;5059354;28;20075;-65
2022/11/20 11:56:51;;;;;;;7.70;6.63;;;5.00;99.90;;;;;;5063166;28;20336;-65
2022/11/20 11:59:49;;;;;;;8.00;6.38;;;4.90;99.90;;;;;;5066616;28;20045;-66
2022/11/20 12:02:41;;;;;;;7.85;6.20;;;4.80;99.90;;;;;;5062276;28;20052;-65
2022/11/20 12:05:23;;;;;;;8.00;6.57;;;4.70;99.90;;;;;;5066125;28;20384;-66
2022/11/20 12:07:53;;;;;;;7.55;5.93;;;4.60;99.90;;;;;;5055895;28;20084;-65
2022/11/20 12:10:34;;;;;;;6.60;5.75;;;4.50;99.90;;;;;;5060633;28;20052;-65
2022/11/20 12:13:33;;;;;;;6.78;5.93;;;4.40;99.90;;;;;;5059486;28;20041;-66
2022/11/20 12:16:00;;;;;;;7.32;6.07;;;4.30;99.90;;;;;;5054446;28;20074;-66
2022/11/20 12:18:26;;;;;;;6.85;6.05;;;4.20;99.90;;;;;;5059309;28;20561;-66
2022/11/20 12:21:17;;;;;;;8.77;5.88;;;4.10;99.90;;;;;;5065950;28;20408;-65
2022/11/20 12:23:49;;;;;;;6.72;6.03;;;4.10;99.90;;;;;;5060447;28;20476;-65
2022/11/20 12:26:34;;;;;;;8.27;6.47;;;4.00;99.90;;;;;;5055387;28;20036;-66
2022/11/20 12:29:40;;;;;;;7.28;5.93;;;4.00;99.90;;;;;;5060384;28;20173;-65
2022/11/20 12:32:32;;;;;;;7.85;6.68;;;3.90;99.90;;;;;;5048263;28;20045;-65
2022/11/20 12:35:13;;;;;;;7.05;6.22;;;3.90;99.90;;;;;;5052947;28;20044;-66
2022/11/20 12:37:47;;;;;;;8.43;6.80;;;3.90;99.90;;;;;;5059195;28;20068;-66
2022/11/20 12:40:13;;;;;;;8.55;7.28;;;3.90;99.90;;;;;;5064845;28;20152;-66
2022/11/20 12:46:08;;;;;;;9.93;7.65;;;3.90;99.90;;;;;;5058201;28;20447;-66
2022/11/20 12:48:55;;;;;;;9.00;7.35;;;3.90;99.90;;;;;;5062022;28;20116;-66
2022/11/20 12:51:40;;;;;;;8.07;6.80;;;3.80;99.90;;;;;;5062525;28;20090;-66
2022/11/20 12:54:40;;;;;;;8.55;7.63;;;3.70;99.90;;;;;;5053027;28;20512;-66
2022/11/20 12:57:13;;;;;;;9.93;7.82;;;3.60;99.90;;;;;;5055536;28;20055;-66
2022/11/20 13:00:14;;;;;;;8.65;7.65;;;3.50;99.90;;;;;;5057960;28;20037;-66
2022/11/20 13:02:46;;;;;;;9.82;7.90;;;3.50;99.90;;;;;;5058815;28;20033;-66
2022/11/20 13:05:52;;;;;;;8.27;7.22;;;3.40;99.90;;;;;;5057885;28;20048;-66
2022/11/20 13:08:23;;;;;;;10.68;8.05;;;3.30;99.90;;;;;;5060553;28;20048;-66